Aérodrome :
LOGIN :

S'inscrire | Disclaimer

   EN    FR    IT 

 










Légende :    VFR   VFR Marginal   IFR   IFR Intensif   IFR Très Intensif
Visi : 
Plafond : 
>= 8 km
>= 3000ft
5 à 8 km
1000 à 3000 ft
1500m à 5 km
500 à 1000 ft
800 à 1500m
200 à 500 ft
< 800m
< 200 ft
Symboles :   Orages  Brouillard  Fortes neiges  Fortes précipitations  Vent > 20 kt
SIGMETs :   Divers  Orages  Givrage  Turbulence  Onde Orograph.  Cendres Volcan.







- Altitude de l'aérodrome : 614 ft
- Code IATA : CRL


EBCI - Charleroi

DERNIER METAR :
  • 201420Z 20013KT 9999 FEW035 24/12 Q1015 NOSIG

METARs EXPIRÉS :
  • 201350Z 21014KT 170V240 9999 FEW035 23/12 Q1016 NOSIG
  • 201320Z 20013KT 9999 FEW035 23/12 Q1016 NOSIG
  • 201250Z 19012KT 150V220 9999 FEW035 23/13 Q1017 NOSIG
  • 201220Z 20011KT 170V240 9999 FEW035 23/13 Q1017 NOSIG
  • 201150Z 21013KT 170V230 9999 FEW027 22/13 Q1017 NOSIG
  • 201120Z 23013KT 9999 FEW027 21/13 Q1018 NOSIG

TAF TAF EBCI
Valide du 20 à 12h jusqu'au 21 à 18h UTC


201120Z 2012/2118 21010KT 9999 FEW035
PROB30
TEMPO 2100/2104 21015G25KT
TEMPO 2104/2109 21018G28KT 3500 RA SHRA BKN014
BECMG 2109/2111 27018KT
TEMPO 2109/2118 27022G35KT
Pas de NOTAMs connus pour ce terrain.



MET'MAP, la Météo Aéronautique d'un coup d'oeil ! - Copyright ORBIFLY Décembre 2007 - Disclaimer

ORBIFLY MET'MAP TEAM :

Programmation & Développement : Alexandra Zaïnal
Conception & Développement : Baudouin d'Aumeries
Co-Programmation & Développement : Marc-Olivier Méhu
Soutien technique & logistique : Manuel Goepfert

Contact : metmap@orbifly.com




SOURCES & CREDITS :

   NOAA